sensor_id;sensor_type;location;lat;lon;timestamp;temperature;humidity
78514;SHT31;67814;51.976;5.810;2023-07-20T00:01:06;19.9;65.3
78514;SHT31;67814;51.976;5.810;2023-07-20T00:03:34;19.9;65.5
78514;SHT31;67814;51.976;5.810;2023-07-20T00:06:03;19.9;65.8
78514;SHT31;67814;51.976;5.810;2023-07-20T00:08:34;19.8;66.0
78514;SHT31;67814;51.976;5.810;2023-07-20T00:11:02;19.8;65.9
78514;SHT31;67814;51.976;5.810;2023-07-20T00:13:31;19.8;65.6
78514;SHT31;67814;51.976;5.810;2023-07-20T00:16:00;19.8;66.2
78514;SHT31;67814;51.976;5.810;2023-07-20T00:18:28;19.8;66.5
78514;SHT31;67814;51.976;5.810;2023-07-20T00:20:57;19.8;66.5
78514;SHT31;67814;51.976;5.810;2023-07-20T00:23:26;19.8;66.3
78514;SHT31;67814;51.976;5.810;2023-07-20T00:25:54;19.7;66.3
78514;SHT31;67814;51.976;5.810;2023-07-20T00:28:23;19.7;67.0
78514;SHT31;67814;51.976;5.810;2023-07-20T00:30:52;19.7;66.7
78514;SHT31;67814;51.976;5.810;2023-07-20T00:33:20;19.7;67.0
78514;SHT31;67814;51.976;5.810;2023-07-20T00:35:49;19.7;67.1
78514;SHT31;67814;51.976;5.810;2023-07-20T00:38:17;19.6;67.1
78514;SHT31;67814;51.976;5.810;2023-07-20T00:40:46;19.6;67.0
78514;SHT31;67814;51.976;5.810;2023-07-20T00:43:16;19.6;67.0
78514;SHT31;67814;51.976;5.810;2023-07-20T00:45:46;19.6;67.3
78514;SHT31;67814;51.976;5.810;2023-07-20T00:48:14;19.6;67.3
78514;SHT31;67814;51.976;5.810;2023-07-20T00:50:44;19.5;67.5
78514;SHT31;67814;51.976;5.810;2023-07-20T00:53:15;19.5;67.7
78514;SHT31;67814;51.976;5.810;2023-07-20T00:55:45;19.5;67.8
78514;SHT31;67814;51.976;5.810;2023-07-20T00:58:14;19.4;67.2
78514;SHT31;67814;51.976;5.810;2023-07-20T01:00:42;19.4;68.3
78514;SHT31;67814;51.976;5.810;2023-07-20T01:03:11;19.3;68.2
78514;SHT31;67814;51.976;5.810;2023-07-20T01:05:45;19.3;68.7
78514;SHT31;67814;51.976;5.810;2023-07-20T01:08:23;19.3;68.8
78514;SHT31;67814;51.976;5.810;2023-07-20T01:10:59;19.2;68.8
78514;SHT31;67814;51.976;5.810;2023-07-20T01:13:31;19.2;68.4
78514;SHT31;67814;51.976;5.810;2023-07-20T01:16:02;19.2;68.6
78514;SHT31;67814;51.976;5.810;2023-07-20T01:18:31;19.2;69.0
78514;SHT31;67814;51.976;5.810;2023-07-20T01:21:05;19.2;68.3
78514;SHT31;67814;51.976;5.810;2023-07-20T01:24:04;19.2;68.4
78514;SHT31;67814;51.976;5.810;2023-07-20T01:26:52;19.1;68.3
78514;SHT31;67814;51.976;5.810;2023-07-20T01:29:36;19.1;68.4
78514;SHT31;67814;51.976;5.810;2023-07-20T01:32:09;19.1;68.5
78514;SHT31;67814;51.976;5.810;2023-07-20T01:34:40;19.1;68.8
78514;SHT31;67814;51.976;5.810;2023-07-20T01:37:12;19.0;69.3
78514;SHT31;67814;51.976;5.810;2023-07-20T01:39:41;19.0;69.5
78514;SHT31;67814;51.976;5.810;2023-07-20T01:42:10;19.0;69.6
78514;SHT31;67814;51.976;5.810;2023-07-20T01:44:39;19.0;69.4
78514;SHT31;67814;51.976;5.810;2023-07-20T01:47:07;19.0;69.1
78514;SHT31;67814;51.976;5.810;2023-07-20T01:49:36;19.0;69.2
78514;SHT31;67814;51.976;5.810;2023-07-20T01:52:05;19.0;69.3
78514;SHT31;67814;51.976;5.810;2023-07-20T01:54:33;18.9;68.7
78514;SHT31;67814;51.976;5.810;2023-07-20T01:57:02;18.9;68.8
78514;SHT31;67814;51.976;5.810;2023-07-20T01:59:31;18.9;68.8
78514;SHT31;67814;51.976;5.810;2023-07-20T02:02:00;18.9;68.7
78514;SHT31;67814;51.976;5.810;2023-07-20T02:04:28;18.8;68.9
78514;SHT31;67814;51.976;5.810;2023-07-20T02:06:57;18.8;69.1
78514;SHT31;67814;51.976;5.810;2023-07-20T02:09:25;18.8;69.3
78514;SHT31;67814;51.976;5.810;2023-07-20T02:11:54;18.7;69.4
78514;SHT31;67814;51.976;5.810;2023-07-20T02:14:22;18.7;69.3
78514;SHT31;67814;51.976;5.810;2023-07-20T02:16:51;18.7;69.3
78514;SHT31;67814;51.976;5.810;2023-07-20T02:19:25;18.6;68.9
78514;SHT31;67814;51.976;5.810;2023-07-20T02:21:53;18.6;68.9
78514;SHT31;67814;51.976;5.810;2023-07-20T02:24:24;18.6;69.1
78514;SHT31;67814;51.976;5.810;2023-07-20T02:26:52;18.6;69.1
78514;SHT31;67814;51.976;5.810;2023-07-20T02:29:21;18.5;69.5
78514;SHT31;67814;51.976;5.810;2023-07-20T02:31:49;18.5;69.5
78514;SHT31;67814;51.976;5.810;2023-07-20T02:34:18;18.5;69.6
78514;SHT31;67814;51.976;5.810;2023-07-20T02:36:46;18.4;69.6
78514;SHT31;67814;51.976;5.810;2023-07-20T02:39:15;18.4;69.7
78514;SHT31;67814;51.976;5.810;2023-07-20T02:41:43;18.3;69.6
78514;SHT31;67814;51.976;5.810;2023-07-20T02:44:13;18.3;69.5
78514;SHT31;67814;51.976;5.810;2023-07-20T02:46:42;18.3;69.2
78514;SHT31;67814;51.976;5.810;2023-07-20T02:49:11;18.3;69.1
78514;SHT31;67814;51.976;5.810;2023-07-20T02:51:40;18.2;69.4
78514;SHT31;67814;51.976;5.810;2023-07-20T02:54:08;18.2;69.5
78514;SHT31;67814;51.976;5.810;2023-07-20T02:56:37;18.1;69.6
78514;SHT31;67814;51.976;5.810;2023-07-20T02:59:06;18.1;69.5
78514;SHT31;67814;51.976;5.810;2023-07-20T03:01:34;18.0;69.4
78514;SHT31;67814;51.976;5.810;2023-07-20T03:04:03;18.0;69.8
78514;SHT31;67814;51.976;5.810;2023-07-20T03:06:36;17.9;69.9
78514;SHT31;67814;51.976;5.810;2023-07-20T03:09:04;17.9;69.9
78514;SHT31;67814;51.976;5.810;2023-07-20T03:11:35;17.8;70.3
78514;SHT31;67814;51.976;5.810;2023-07-20T03:14:04;17.8;70.4
78514;SHT31;67814;51.976;5.810;2023-07-20T03:16:33;17.8;70.1
78514;SHT31;67814;51.976;5.810;2023-07-20T03:19:01;17.7;70.0
78514;SHT31;67814;51.976;5.810;2023-07-20T03:21:30;17.7;70.2
78514;SHT31;67814;51.976;5.810;2023-07-20T03:23:58;17.7;70.2
78514;SHT31;67814;51.976;5.810;2023-07-20T03:26:27;17.6;70.4
78514;SHT31;67814;51.976;5.810;2023-07-20T03:28:56;17.6;70.3
78514;SHT31;67814;51.976;5.810;2023-07-20T03:31:24;17.5;70.2
78514;SHT31;67814;51.976;5.810;2023-07-20T03:33:52;17.5;70.2
78514;SHT31;67814;51.976;5.810;2023-07-20T03:36:21;17.4;70.5
78514;SHT31;67814;51.976;5.810;2023-07-20T03:38:49;17.4;70.5
78514;SHT31;67814;51.976;5.810;2023-07-20T03:41:18;17.4;70.4
78514;SHT31;67814;51.976;5.810;2023-07-20T03:43:48;17.3;70.4
78514;SHT31;67814;51.976;5.810;2023-07-20T03:46:17;17.3;70.2
78514;SHT31;67814;51.976;5.810;2023-07-20T03:48:45;17.3;70.4
78514;SHT31;67814;51.976;5.810;2023-07-20T03:51:14;17.3;70.0
78514;SHT31;67814;51.976;5.810;2023-07-20T03:53:42;17.2;69.9
78514;SHT31;67814;51.976;5.810;2023-07-20T03:56:11;17.2;70.0
78514;SHT31;67814;51.976;5.810;2023-07-20T03:58:39;17.1;70.4
78514;SHT31;67814;51.976;5.810;2023-07-20T04:01:08;17.1;70.4
78514;SHT31;67814;51.976;5.810;2023-07-20T04:03:39;17.0;70.8
78514;SHT31;67814;51.976;5.810;2023-07-20T04:06:09;17.0;71.1
78514;SHT31;67814;51.976;5.810;2023-07-20T04:08:38;17.0;71.2
78514;SHT31;67814;51.976;5.810;2023-07-20T04:11:07;16.9;71.5
78514;SHT31;67814;51.976;5.810;2023-07-20T04:13:35;16.9;71.5
78514;SHT31;67814;51.976;5.810;2023-07-20T04:16:04;16.9;72.1
78514;SHT31;67814;51.976;5.810;2023-07-20T04:18:32;16.9;72.3
78514;SHT31;67814;51.976;5.810;2023-07-20T04:21:01;16.9;72.4
78514;SHT31;67814;51.976;5.810;2023-07-20T04:23:29;16.8;72.6
78514;SHT31;67814;51.976;5.810;2023-07-20T04:25:58;16.8;72.7
78514;SHT31;67814;51.976;5.810;2023-07-20T04:28:26;16.8;72.8
78514;SHT31;67814;51.976;5.810;2023-07-20T04:30:55;16.8;72.7
78514;SHT31;67814;51.976;5.810;2023-07-20T04:33:23;16.8;72.7
78514;SHT31;67814;51.976;5.810;2023-07-20T04:35:55;16.8;72.9
78514;SHT31;67814;51.976;5.810;2023-07-20T04:38:23;16.8;73.1
78514;SHT31;67814;51.976;5.810;2023-07-20T04:40:52;16.9;73.2
78514;SHT31;67814;51.976;5.810;2023-07-20T04:43:21;16.9;73.0
78514;SHT31;67814;51.976;5.810;2023-07-20T04:45:49;16.9;73.0
78514;SHT31;67814;51.976;5.810;2023-07-20T04:48:18;16.9;73.2
78514;SHT31;67814;51.976;5.810;2023-07-20T04:50:47;16.9;73.5
78514;SHT31;67814;51.976;5.810;2023-07-20T04:53:15;16.9;73.7
78514;SHT31;67814;51.976;5.810;2023-07-20T04:55:50;16.9;74.2
78514;SHT31;67814;51.976;5.810;2023-07-20T04:58:22;16.9;74.9
78514;SHT31;67814;51.976;5.810;2023-07-20T05:00:51;17.0;75.5
78514;SHT31;67814;51.976;5.810;2023-07-20T05:03:20;17.1;75.0
78514;SHT31;67814;51.976;5.810;2023-07-20T05:05:48;17.2;74.8
78514;SHT31;67814;51.976;5.810;2023-07-20T05:08:17;17.3;74.3
78514;SHT31;67814;51.976;5.810;2023-07-20T05:10:45;17.5;73.8
78514;SHT31;67814;51.976;5.810;2023-07-20T05:13:14;17.6;73.8
78514;SHT31;67814;51.976;5.810;2023-07-20T05:15:42;17.7;73.4
78514;SHT31;67814;51.976;5.810;2023-07-20T05:18:11;17.9;72.3
78514;SHT31;67814;51.976;5.810;2023-07-20T05:20:40;18.0;71.9
78514;SHT31;67814;51.976;5.810;2023-07-20T05:23:08;18.2;71.4
78514;SHT31;67814;51.976;5.810;2023-07-20T05:25:37;18.3;70.9
78514;SHT31;67814;51.976;5.810;2023-07-20T05:28:05;18.5;71.2
78514;SHT31;67814;51.976;5.810;2023-07-20T05:30:34;18.6;70.1
78514;SHT31;67814;51.976;5.810;2023-07-20T05:33:02;18.8;70.9
78514;SHT31;67814;51.976;5.810;2023-07-20T05:35:33;19.0;69.4
78514;SHT31;67814;51.976;5.810;2023-07-20T05:38:01;19.2;69.1
78514;SHT31;67814;51.976;5.810;2023-07-20T05:40:31;19.3;66.6
78514;SHT31;67814;51.976;5.810;2023-07-20T05:42:59;19.5;67.1
78514;SHT31;67814;51.976;5.810;2023-07-20T05:45:28;19.6;66.7
78514;SHT31;67814;51.976;5.810;2023-07-20T05:47:58;19.7;66.4
78514;SHT31;67814;51.976;5.810;2023-07-20T05:50:27;19.7;65.0
78514;SHT31;67814;51.976;5.810;2023-07-20T05:52:56;19.8;65.2
78514;SHT31;67814;51.976;5.810;2023-07-20T05:55:26;19.8;65.2
78514;SHT31;67814;51.976;5.810;2023-07-20T05:57:55;19.9;65.4
78514;SHT31;67814;51.976;5.810;2023-07-20T06:00:23;20.0;65.6
78514;SHT31;67814;51.976;5.810;2023-07-20T06:02:52;20.1;63.6
78514;SHT31;67814;51.976;5.810;2023-07-20T06:05:21;20.2;63.2
78514;SHT31;67814;51.976;5.810;2023-07-20T06:07:50;20.4;62.1
78514;SHT31;67814;51.976;5.810;2023-07-20T06:10:21;20.5;61.7
78514;SHT31;67814;51.976;5.810;2023-07-20T06:12:49;20.6;61.8
78514;SHT31;67814;51.976;5.810;2023-07-20T06:15:28;20.7;61.0
78514;SHT31;67814;51.976;5.810;2023-07-20T06:17:57;20.8;64.1
78514;SHT31;67814;51.976;5.810;2023-07-20T06:20:27;20.9;61.0
78514;SHT31;67814;51.976;5.810;2023-07-20T06:22:55;21.1;61.1
78514;SHT31;67814;51.976;5.810;2023-07-20T06:25:24;21.3;59.8
78514;SHT31;67814;51.976;5.810;2023-07-20T06:27:54;21.6;58.4
78514;SHT31;67814;51.976;5.810;2023-07-20T06:30:24;21.9;58.3
78514;SHT31;67814;51.976;5.810;2023-07-20T06:32:52;22.2;56.0
78514;SHT31;67814;51.976;5.810;2023-07-20T06:35:21;22.5;54.5
78514;SHT31;67814;51.976;5.810;2023-07-20T06:37:50;22.8;55.4
78514;SHT31;67814;51.976;5.810;2023-07-20T06:40:18;23.0;51.3
78514;SHT31;67814;51.976;5.810;2023-07-20T06:42:47;23.3;51.9
78514;SHT31;67814;51.976;5.810;2023-07-20T06:45:17;23.5;50.6
78514;SHT31;67814;51.976;5.810;2023-07-20T06:47:46;23.7;50.6
78514;SHT31;67814;51.976;5.810;2023-07-20T06:50:14;23.9;51.0
78514;SHT31;67814;51.976;5.810;2023-07-20T06:52:45;24.0;48.3
78514;SHT31;67814;51.976;5.810;2023-07-20T06:55:14;24.2;50.2
78514;SHT31;67814;51.976;5.810;2023-07-20T06:57:43;24.4;48.7
78514;SHT31;67814;51.976;5.810;2023-07-20T07:00:12;24.7;48.1
78514;SHT31;67814;51.976;5.810;2023-07-20T07:02:40;24.9;47.2
78514;SHT31;67814;51.976;5.810;2023-07-20T07:05:09;25.1;48.4
78514;SHT31;67814;51.976;5.810;2023-07-20T07:07:39;25.3;46.5
78514;SHT31;67814;51.976;5.810;2023-07-20T07:10:09;25.4;45.6
78514;SHT31;67814;51.976;5.810;2023-07-20T07:12:37;25.5;45.4
78514;SHT31;67814;51.976;5.810;2023-07-20T07:15:09;25.5;43.6
78514;SHT31;67814;51.976;5.810;2023-07-20T07:17:38;25.5;45.5
78514;SHT31;67814;51.976;5.810;2023-07-20T07:20:07;25.4;44.1
78514;SHT31;67814;51.976;5.810;2023-07-20T07:22:37;25.4;44.5
78514;SHT31;67814;51.976;5.810;2023-07-20T07:25:06;25.4;44.3
78514;SHT31;67814;51.976;5.810;2023-07-20T07:27:34;25.4;46.4
78514;SHT31;67814;51.976;5.810;2023-07-20T07:30:03;25.4;45.6
78514;SHT31;67814;51.976;5.810;2023-07-20T07:32:32;25.5;44.5
78514;SHT31;67814;51.976;5.810;2023-07-20T07:35:00;25.6;46.5
78514;SHT31;67814;51.976;5.810;2023-07-20T07:37:29;25.7;43.8
78514;SHT31;67814;51.976;5.810;2023-07-20T07:39:57;25.8;43.6
78514;SHT31;67814;51.976;5.810;2023-07-20T07:42:26;25.8;42.1
78514;SHT31;67814;51.976;5.810;2023-07-20T07:44:57;25.8;43.6
78514;SHT31;67814;51.976;5.810;2023-07-20T07:47:25;25.8;44.7
78514;SHT31;67814;51.976;5.810;2023-07-20T07:49:54;25.8;42.4
78514;SHT31;67814;51.976;5.810;2023-07-20T07:52:23;25.8;43.1
78514;SHT31;67814;51.976;5.810;2023-07-20T07:54:52;25.7;43.7
78514;SHT31;67814;51.976;5.810;2023-07-20T07:57:20;25.6;46.1
78514;SHT31;67814;51.976;5.810;2023-07-20T07:59:49;25.5;44.2
78514;SHT31;67814;51.976;5.810;2023-07-20T08:02:17;25.5;43.8
78514;SHT31;67814;51.976;5.810;2023-07-20T08:04:46;25.4;44.2
78514;SHT31;67814;51.976;5.810;2023-07-20T08:07:14;25.3;42.7
78514;SHT31;67814;51.976;5.810;2023-07-20T08:09:43;25.2;42.6
78514;SHT31;67814;51.976;5.810;2023-07-20T08:12:11;25.0;44.0
78514;SHT31;67814;51.976;5.810;2023-07-20T08:14:40;24.8;42.4
78514;SHT31;67814;51.976;5.810;2023-07-20T08:17:09;24.6;43.2
78514;SHT31;67814;51.976;5.810;2023-07-20T08:19:37;24.4;43.8
78514;SHT31;67814;51.976;5.810;2023-07-20T08:22:08;24.3;42.4
78514;SHT31;67814;51.976;5.810;2023-07-20T08:24:41;24.1;41.2
78514;SHT31;67814;51.976;5.810;2023-07-20T08:27:10;23.9;42.2
78514;SHT31;67814;51.976;5.810;2023-07-20T08:29:38;23.7;43.3
78514;SHT31;67814;51.976;5.810;2023-07-20T08:32:07;23.5;43.3
78514;SHT31;67814;51.976;5.810;2023-07-20T08:34:36;23.4;45.1
78514;SHT31;67814;51.976;5.810;2023-07-20T08:37:05;23.4;43.4
78514;SHT31;67814;51.976;5.810;2023-07-20T08:39:36;23.3;45.5
78514;SHT31;67814;51.976;5.810;2023-07-20T08:42:05;23.3;44.5
78514;SHT31;67814;51.976;5.810;2023-07-20T08:44:35;23.2;45.5
78514;SHT31;67814;51.976;5.810;2023-07-20T08:47:06;23.1;45.6
78514;SHT31;67814;51.976;5.810;2023-07-20T08:49:36;23.0;48.2
78514;SHT31;67814;51.976;5.810;2023-07-20T08:52:06;22.9;48.0
78514;SHT31;67814;51.976;5.810;2023-07-20T08:54:34;22.8;49.2
78514;SHT31;67814;51.976;5.810;2023-07-20T08:57:05;22.8;49.0
78514;SHT31;67814;51.976;5.810;2023-07-20T08:59:36;22.7;49.3
78514;SHT31;67814;51.976;5.810;2023-07-20T09:02:06;22.7;49.5
78514;SHT31;67814;51.976;5.810;2023-07-20T09:04:36;22.6;49.0
78514;SHT31;67814;51.976;5.810;2023-07-20T09:07:05;22.6;48.7
78514;SHT31;67814;51.976;5.810;2023-07-20T09:09:39;22.7;48.6
78514;SHT31;67814;51.976;5.810;2023-07-20T09:12:12;22.7;47.4
78514;SHT31;67814;51.976;5.810;2023-07-20T09:14:42;22.8;45.4
78514;SHT31;67814;51.976;5.810;2023-07-20T09:17:14;22.8;46.8
78514;SHT31;67814;51.976;5.810;2023-07-20T09:19:48;22.8;45.7
78514;SHT31;67814;51.976;5.810;2023-07-20T09:22:16;22.9;46.1
78514;SHT31;67814;51.976;5.810;2023-07-20T09:24:45;23.0;45.6
78514;SHT31;67814;51.976;5.810;2023-07-20T09:27:14;23.2;46.0
78514;SHT31;67814;51.976;5.810;2023-07-20T09:29:50;23.3;46.5
78514;SHT31;67814;51.976;5.810;2023-07-20T09:32:22;23.5;44.3
78514;SHT31;67814;51.976;5.810;2023-07-20T09:34:51;23.6;44.6
78514;SHT31;67814;51.976;5.810;2023-07-20T09:37:22;23.7;42.7
78514;SHT31;67814;51.976;5.810;2023-07-20T09:39:53;23.7;44.4
78514;SHT31;67814;51.976;5.810;2023-07-20T09:42:23;23.8;44.6
78514;SHT31;67814;51.976;5.810;2023-07-20T09:44:53;23.8;45.3
78514;SHT31;67814;51.976;5.810;2023-07-20T09:47:25;23.9;45.0
78514;SHT31;67814;51.976;5.810;2023-07-20T09:49:58;23.9;44.2
78514;SHT31;67814;51.976;5.810;2023-07-20T09:52:29;23.9;44.7
78514;SHT31;67814;51.976;5.810;2023-07-20T09:54:58;23.9;43.5
78514;SHT31;67814;51.976;5.810;2023-07-20T09:57:30;23.9;44.8
78514;SHT31;67814;51.976;5.810;2023-07-20T09:59:59;23.9;45.9
78514;SHT31;67814;51.976;5.810;2023-07-20T10:02:32;23.9;45.1
78514;SHT31;67814;51.976;5.810;2023-07-20T10:05:03;24.0;45.5
78514;SHT31;67814;51.976;5.810;2023-07-20T10:07:36;24.0;44.3
78514;SHT31;67814;51.976;5.810;2023-07-20T10:10:09;24.0;47.1
78514;SHT31;67814;51.976;5.810;2023-07-20T10:12:39;24.0;45.7
78514;SHT31;67814;51.976;5.810;2023-07-20T10:15:15;24.0;45.2
78514;SHT31;67814;51.976;5.810;2023-07-20T10:17:56;24.0;43.7
78514;SHT31;67814;51.976;5.810;2023-07-20T10:20:27;24.0;44.2
78514;SHT31;67814;51.976;5.810;2023-07-20T10:22:57;24.0;44.6
78514;SHT31;67814;51.976;5.810;2023-07-20T10:25:26;24.1;44.1
78514;SHT31;67814;51.976;5.810;2023-07-20T10:27:57;24.1;44.0
78514;SHT31;67814;51.976;5.810;2023-07-20T10:30:28;24.2;44.6
78514;SHT31;67814;51.976;5.810;2023-07-20T10:32:58;24.2;42.4
78514;SHT31;67814;51.976;5.810;2023-07-20T10:35:29;24.3;45.2
78514;SHT31;67814;51.976;5.810;2023-07-20T10:38:02;24.3;43.0
78514;SHT31;67814;51.976;5.810;2023-07-20T10:40:33;24.3;43.4
78514;SHT31;67814;51.976;5.810;2023-07-20T10:43:03;24.3;43.5
78514;SHT31;67814;51.976;5.810;2023-07-20T10:45:53;24.3;44.2
78514;SHT31;67814;51.976;5.810;2023-07-20T10:48:23;24.3;42.6
78514;SHT31;67814;51.976;5.810;2023-07-20T10:51:11;24.3;43.5
78514;SHT31;67814;51.976;5.810;2023-07-20T10:53:41;24.2;43.9
78514;SHT31;67814;51.976;5.810;2023-07-20T10:56:12;24.1;45.6
78514;SHT31;67814;51.976;5.810;2023-07-20T10:58:42;24.1;45.3
78514;SHT31;67814;51.976;5.810;2023-07-20T11:01:14;24.1;46.1
78514;SHT31;67814;51.976;5.810;2023-07-20T11:03:49;24.1;44.5
78514;SHT31;67814;51.976;5.810;2023-07-20T11:06:33;24.1;45.6
78514;SHT31;67814;51.976;5.810;2023-07-20T11:09:12;24.1;45.6
78514;SHT31;67814;51.976;5.810;2023-07-20T11:11:43;24.1;42.9
78514;SHT31;67814;51.976;5.810;2023-07-20T11:14:22;24.1;44.1
78514;SHT31;67814;51.976;5.810;2023-07-20T11:16:52;24.2;44.0
78514;SHT31;67814;51.976;5.810;2023-07-20T11:19:23;24.2;41.8
78514;SHT31;67814;51.976;5.810;2023-07-20T11:21:53;24.2;44.1
78514;SHT31;67814;51.976;5.810;2023-07-20T11:24:23;24.1;44.9
78514;SHT31;67814;51.976;5.810;2023-07-20T11:26:52;24.2;44.9
78514;SHT31;67814;51.976;5.810;2023-07-20T11:29:25;24.2;44.4
78514;SHT31;67814;51.976;5.810;2023-07-20T11:31:54;24.2;44.1
78514;SHT31;67814;51.976;5.810;2023-07-20T11:34:22;24.3;44.0
78514;SHT31;67814;51.976;5.810;2023-07-20T11:36:51;24.3;44.7
78514;SHT31;67814;51.976;5.810;2023-07-20T11:39:22;24.2;46.8
78514;SHT31;67814;51.976;5.810;2023-07-20T11:41:53;24.2;46.2
78514;SHT31;67814;51.976;5.810;2023-07-20T11:44:23;24.2;45.4
78514;SHT31;67814;51.976;5.810;2023-07-20T11:47:03;24.3;44.0
78514;SHT31;67814;51.976;5.810;2023-07-20T11:49:35;24.3;43.8
78514;SHT31;67814;51.976;5.810;2023-07-20T11:52:05;24.3;45.0
78514;SHT31;67814;51.976;5.810;2023-07-20T11:54:35;24.4;43.9
78514;SHT31;67814;51.976;5.810;2023-07-20T11:57:06;24.4;43.9
78514;SHT31;67814;51.976;5.810;2023-07-20T11:59:34;24.5;42.3
78514;SHT31;67814;51.976;5.810;2023-07-20T12:02:03;24.6;42.5
78514;SHT31;67814;51.976;5.810;2023-07-20T12:04:33;24.6;40.9
78514;SHT31;67814;51.976;5.810;2023-07-20T12:07:02;24.6;41.5
78514;SHT31;67814;51.976;5.810;2023-07-20T12:09:31;24.7;39.5
78514;SHT31;67814;51.976;5.810;2023-07-20T12:12:00;24.7;39.2
78514;SHT31;67814;51.976;5.810;2023-07-20T12:14:32;24.8;40.7
78514;SHT31;67814;51.976;5.810;2023-07-20T12:17:01;24.8;41.9
78514;SHT31;67814;51.976;5.810;2023-07-20T12:19:29;24.8;40.8
78514;SHT31;67814;51.976;5.810;2023-07-20T12:21:59;24.8;41.2
78514;SHT31;67814;51.976;5.810;2023-07-20T12:24:30;24.8;42.1
78514;SHT31;67814;51.976;5.810;2023-07-20T12:26:59;24.9;41.9
78514;SHT31;67814;51.976;5.810;2023-07-20T12:29:27;25.0;41.1
78514;SHT31;67814;51.976;5.810;2023-07-20T12:31:57;25.1;39.8
78514;SHT31;67814;51.976;5.810;2023-07-20T12:34:26;25.2;38.4
78514;SHT31;67814;51.976;5.810;2023-07-20T12:36:55;25.2;38.7
78514;SHT31;67814;51.976;5.810;2023-07-20T12:39:23;25.3;39.1
78514;SHT31;67814;51.976;5.810;2023-07-20T12:41:52;25.3;38.1
78514;SHT31;67814;51.976;5.810;2023-07-20T12:44:20;25.4;37.5
78514;SHT31;67814;51.976;5.810;2023-07-20T12:46:49;25.5;37.8
78514;SHT31;67814;51.976;5.810;2023-07-20T12:49:17;25.5;36.9
78514;SHT31;67814;51.976;5.810;2023-07-20T12:51:46;25.6;37.7
78514;SHT31;67814;51.976;5.810;2023-07-20T12:54:14;25.7;39.5
78514;SHT31;67814;51.976;5.810;2023-07-20T12:56:43;25.8;38.7
78514;SHT31;67814;51.976;5.810;2023-07-20T12:59:11;25.9;38.3
78514;SHT31;67814;51.976;5.810;2023-07-20T13:01:40;26.0;37.0
78514;SHT31;67814;51.976;5.810;2023-07-20T13:04:10;26.0;37.5
78514;SHT31;67814;51.976;5.810;2023-07-20T13:06:40;26.1;37.3
78514;SHT31;67814;51.976;5.810;2023-07-20T13:09:09;26.1;37.8
78514;SHT31;67814;51.976;5.810;2023-07-20T13:11:37;26.2;37.0
78514;SHT31;67814;51.976;5.810;2023-07-20T13:14:05;26.2;38.6
78514;SHT31;67814;51.976;5.810;2023-07-20T13:16:34;26.2;38.6
78514;SHT31;67814;51.976;5.810;2023-07-20T13:19:03;26.2;39.4
78514;SHT31;67814;51.976;5.810;2023-07-20T13:21:31;26.2;38.5
78514;SHT31;67814;51.976;5.810;2023-07-20T13:23:59;26.2;38.8
78514;SHT31;67814;51.976;5.810;2023-07-20T13:26:32;26.2;37.1
78514;SHT31;67814;51.976;5.810;2023-07-20T13:29:00;26.1;37.4
78514;SHT31;67814;51.976;5.810;2023-07-20T13:31:29;26.0;39.4
78514;SHT31;67814;51.976;5.810;2023-07-20T13:33:58;25.9;37.3
78514;SHT31;67814;51.976;5.810;2023-07-20T13:36:26;25.8;38.9
78514;SHT31;67814;51.976;5.810;2023-07-20T13:38:57;25.8;38.0
78514;SHT31;67814;51.976;5.810;2023-07-20T13:41:25;25.7;39.7
78514;SHT31;67814;51.976;5.810;2023-07-20T13:43:54;25.7;40.2
78514;SHT31;67814;51.976;5.810;2023-07-20T13:46:22;25.6;40.7
78514;SHT31;67814;51.976;5.810;2023-07-20T13:48:50;25.6;37.9
78514;SHT31;67814;51.976;5.810;2023-07-20T13:51:19;25.6;40.0
78514;SHT31;67814;51.976;5.810;2023-07-20T13:53:48;25.5;41.8
78514;SHT31;67814;51.976;5.810;2023-07-20T13:56:16;25.5;39.2
78514;SHT31;67814;51.976;5.810;2023-07-20T13:58:45;25.5;39.1
78514;SHT31;67814;51.976;5.810;2023-07-20T14:01:13;25.5;39.2
78514;SHT31;67814;51.976;5.810;2023-07-20T14:03:44;25.5;40.4
78514;SHT31;67814;51.976;5.810;2023-07-20T14:06:12;25.6;42.1
78514;SHT31;67814;51.976;5.810;2023-07-20T14:08:41;25.6;41.5
78514;SHT31;67814;51.976;5.810;2023-07-20T14:11:13;25.6;39.1
78514;SHT31;67814;51.976;5.810;2023-07-20T14:13:41;25.6;39.5
78514;SHT31;67814;51.976;5.810;2023-07-20T14:16:11;25.6;40.8
78514;SHT31;67814;51.976;5.810;2023-07-20T14:18:40;25.6;39.3
78514;SHT31;67814;51.976;5.810;2023-07-20T14:21:09;25.6;40.7
78514;SHT31;67814;51.976;5.810;2023-07-20T14:23:39;25.6;40.8
78514;SHT31;67814;51.976;5.810;2023-07-20T14:26:09;25.6;40.9
78514;SHT31;67814;51.976;5.810;2023-07-20T14:28:38;25.6;40.4
78514;SHT31;67814;51.976;5.810;2023-07-20T14:31:06;25.6;40.0
78514;SHT31;67814;51.976;5.810;2023-07-20T14:33:35;25.6;38.7
78514;SHT31;67814;51.976;5.810;2023-07-20T14:36:04;25.6;38.7
78514;SHT31;67814;51.976;5.810;2023-07-20T14:38:34;25.5;39.3
78514;SHT31;67814;51.976;5.810;2023-07-20T14:41:03;25.5;39.5
78514;SHT31;67814;51.976;5.810;2023-07-20T14:43:32;25.5;39.9
78514;SHT31;67814;51.976;5.810;2023-07-20T14:46:01;25.5;39.4
78514;SHT31;67814;51.976;5.810;2023-07-20T14:48:29;25.5;40.8
78514;SHT31;67814;51.976;5.810;2023-07-20T14:50:58;25.5;39.2
78514;SHT31;67814;51.976;5.810;2023-07-20T14:53:26;25.4;38.6
78514;SHT31;67814;51.976;5.810;2023-07-20T14:56:00;25.4;38.8
78514;SHT31;67814;51.976;5.810;2023-07-20T14:58:31;25.4;40.0
78514;SHT31;67814;51.976;5.810;2023-07-20T15:01:00;25.4;38.8
78514;SHT31;67814;51.976;5.810;2023-07-20T15:03:28;25.4;39.4
78514;SHT31;67814;51.976;5.810;2023-07-20T15:05:57;25.4;38.7
78514;SHT31;67814;51.976;5.810;2023-07-20T15:08:25;25.5;39.5
78514;SHT31;67814;51.976;5.810;2023-07-20T15:10:54;25.5;40.2
78514;SHT31;67814;51.976;5.810;2023-07-20T15:13:23;25.5;40.2
78514;SHT31;67814;51.976;5.810;2023-07-20T15:15:52;25.5;39.1
78514;SHT31;67814;51.976;5.810;2023-07-20T15:18:20;25.5;38.6
78514;SHT31;67814;51.976;5.810;2023-07-20T15:20:50;25.5;39.4
78514;SHT31;67814;51.976;5.810;2023-07-20T15:23:20;25.5;40.0
78514;SHT31;67814;51.976;5.810;2023-07-20T15:25:48;25.5;40.0
78514;SHT31;67814;51.976;5.810;2023-07-20T15:28:16;25.5;39.5
78514;SHT31;67814;51.976;5.810;2023-07-20T15:30:45;25.5;40.2
78514;SHT31;67814;51.976;5.810;2023-07-20T15:33:13;25.5;41.2
78514;SHT31;67814;51.976;5.810;2023-07-20T15:35:42;25.5;41.3
78514;SHT31;67814;51.976;5.810;2023-07-20T15:38:10;25.5;40.7
78514;SHT31;67814;51.976;5.810;2023-07-20T15:40:42;25.5;41.1
78514;SHT31;67814;51.976;5.810;2023-07-20T15:43:11;25.6;40.7
78514;SHT31;67814;51.976;5.810;2023-07-20T15:45:46;25.6;39.5
78514;SHT31;67814;51.976;5.810;2023-07-20T15:48:15;25.6;40.4
78514;SHT31;67814;51.976;5.810;2023-07-20T15:50:45;25.6;40.2
78514;SHT31;67814;51.976;5.810;2023-07-20T15:53:14;25.6;38.8
78514;SHT31;67814;51.976;5.810;2023-07-20T15:55:43;25.6;40.3
78514;SHT31;67814;51.976;5.810;2023-07-20T15:58:11;25.6;41.4
78514;SHT31;67814;51.976;5.810;2023-07-20T16:00:40;25.6;41.0
78514;SHT31;67814;51.976;5.810;2023-07-20T16:03:08;25.6;39.9
78514;SHT31;67814;51.976;5.810;2023-07-20T16:05:37;25.6;39.7
78514;SHT31;67814;51.976;5.810;2023-07-20T16:08:06;25.6;40.8
78514;SHT31;67814;51.976;5.810;2023-07-20T16:10:36;25.6;40.7
78514;SHT31;67814;51.976;5.810;2023-07-20T16:13:05;25.6;41.5
78514;SHT31;67814;51.976;5.810;2023-07-20T16:15:33;25.6;41.7
78514;SHT31;67814;51.976;5.810;2023-07-20T16:18:02;25.6;41.1